ZSSS

Shanghai Hongqiao International Airport

Shanghai, China
TAF ZSSS 211912Z 2200/2224 29004MPS 5000 BR NSC TX10/2206Z TN01/2221Z
Issued Valid From Valid To
Jan-21 @ 19:12 UTC
(5 hours ago)
Jan-22 @ 00:00 UTC
(9 minutes ago)
Jan-23 @ 00:00 UTC
(in 24 hours)
Jan-22 @ 00:00 to Jan-23 @ 00:00
TAF ZSSS 211912Z 2200/2224 29004MPS 5000 BR NSC TX10/2206Z TN01/2221Z
Wind Visibility Clouds Conditions
290° at 8 knots 5,005 meters
  • No significant clouds
  • Mist
TAF ZSSS 211912Z 2200/2224 29004MPS 5000 BR NSC TX10/2206Z TN01/2221Z
Issued Jan-21 @ 19:12 UTC
(5 hours ago)
Valid From Jan-22 @ 00:00 UTC
(9 minutes ago)
Valid To Jan-23 @ 00:00 UTC
(in 24 hours)
Jan-22 @ 00:00 - Jan-23 @ 00:00
Wind Visibility
290° at 8 knots 5,005 meters
Clouds
  • No significant clouds
Conditions
  • Mist